sensor_id;sensor_type;location;lat;lon;timestamp;temperature;humidity
48836;DHT22;62581;47.342;7.908;2022-08-30T00:00:48;21.50;99.90
48836;DHT22;62581;47.342;7.908;2022-08-30T00:03:32;21.40;99.90
48836;DHT22;62581;47.342;7.908;2022-08-30T00:06:00;21.40;99.90
48836;DHT22;62581;47.342;7.908;2022-08-30T00:08:27;21.40;99.90
48836;DHT22;62581;47.342;7.908;2022-08-30T00:10:54;21.40;99.90
48836;DHT22;62581;47.342;7.908;2022-08-30T00:13:21;21.30;99.90
48836;DHT22;62581;47.342;7.908;2022-08-30T00:15:48;21.40;99.90
48836;DHT22;62581;47.342;7.908;2022-08-30T00:18:15;21.30;99.90
48836;DHT22;62581;47.342;7.908;2022-08-30T00:20:45;21.20;99.90
48836;DHT22;62581;47.342;7.908;2022-08-30T00:23:12;21.20;99.90
48836;DHT22;62581;47.342;7.908;2022-08-30T00:25:39;21.20;99.90
48836;DHT22;62581;47.342;7.908;2022-08-30T00:28:06;21.20;99.90
48836;DHT22;62581;47.342;7.908;2022-08-30T00:30:33;21.10;99.90
48836;DHT22;62581;47.342;7.908;2022-08-30T00:33:00;21.10;99.90
48836;DHT22;62581;47.342;7.908;2022-08-30T00:35:27;21.10;99.90
48836;DHT22;62581;47.342;7.908;2022-08-30T00:37:55;21.10;99.90
48836;DHT22;62581;47.342;7.908;2022-08-30T00:40:22;21.00;99.90
48836;DHT22;62581;47.342;7.908;2022-08-30T00:42:49;21.00;99.90
48836;DHT22;62581;47.342;7.908;2022-08-30T00:45:18;21.00;99.90
48836;DHT22;62581;47.342;7.908;2022-08-30T00:47:46;20.90;99.90
48836;DHT22;62581;47.342;7.908;2022-08-30T00:50:13;20.90;99.90
48836;DHT22;62581;47.342;7.908;2022-08-30T00:52:40;20.90;99.90
48836;DHT22;62581;47.342;7.908;2022-08-30T00:55:09;20.90;99.90
48836;DHT22;62581;47.342;7.908;2022-08-30T00:57:36;20.90;99.90
48836;DHT22;62581;47.342;7.908;2022-08-30T01:00:04;20.90;99.90
48836;DHT22;62581;47.342;7.908;2022-08-30T01:02:31;20.90;99.90
48836;DHT22;62581;47.342;7.908;2022-08-30T01:04:59;20.80;99.90
48836;DHT22;62581;47.342;7.908;2022-08-30T01:07:26;20.70;99.90
48836;DHT22;62581;47.342;7.908;2022-08-30T01:09:53;20.70;99.90
48836;DHT22;62581;47.342;7.908;2022-08-30T01:12:21;20.70;99.90
48836;DHT22;62581;47.342;7.908;2022-08-30T01:14:48;20.70;99.90
48836;DHT22;62581;47.342;7.908;2022-08-30T01:17:15;20.70;99.90
48836;DHT22;62581;47.342;7.908;2022-08-30T01:19:44;20.70;99.90
48836;DHT22;62581;47.342;7.908;2022-08-30T01:22:16;20.70;99.90
48836;DHT22;62581;47.342;7.908;2022-08-30T01:24:47;20.70;99.90
48836;DHT22;62581;47.342;7.908;2022-08-30T01:27:14;20.70;99.90
48836;DHT22;62581;47.342;7.908;2022-08-30T01:29:41;20.70;99.90
48836;DHT22;62581;47.342;7.908;2022-08-30T01:32:14;20.70;99.90
48836;DHT22;62581;47.342;7.908;2022-08-30T01:34:42;20.70;99.90
48836;DHT22;62581;47.342;7.908;2022-08-30T01:37:09;20.70;99.90
48836;DHT22;62581;47.342;7.908;2022-08-30T01:39:36;20.80;99.90
48836;DHT22;62581;47.342;7.908;2022-08-30T01:42:05;20.70;99.90
48836;DHT22;62581;47.342;7.908;2022-08-30T01:44:31;20.80;99.90
48836;DHT22;62581;47.342;7.908;2022-08-30T01:46:58;20.70;99.90
48836;DHT22;62581;47.342;7.908;2022-08-30T01:49:25;20.60;99.90
48836;DHT22;62581;47.342;7.908;2022-08-30T01:51:52;20.60;99.90
48836;DHT22;62581;47.342;7.908;2022-08-30T01:54:18;20.60;99.90
48836;DHT22;62581;47.342;7.908;2022-08-30T01:56:45;20.60;99.90
48836;DHT22;62581;47.342;7.908;2022-08-30T01:59:13;20.50;99.90
48836;DHT22;62581;47.342;7.908;2022-08-30T02:01:40;20.50;99.90
48836;DHT22;62581;47.342;7.908;2022-08-30T02:04:08;20.50;99.90
48836;DHT22;62581;47.342;7.908;2022-08-30T02:06:36;20.50;99.90
48836;DHT22;62581;47.342;7.908;2022-08-30T02:09:03;20.50;99.90
48836;DHT22;62581;47.342;7.908;2022-08-30T02:11:30;20.40;99.90
48836;DHT22;62581;47.342;7.908;2022-08-30T02:13:57;20.40;99.90
48836;DHT22;62581;47.342;7.908;2022-08-30T02:16:25;20.30;99.90
48836;DHT22;62581;47.342;7.908;2022-08-30T02:18:52;20.30;99.90
48836;DHT22;62581;47.342;7.908;2022-08-30T02:21:20;20.30;99.90
48836;DHT22;62581;47.342;7.908;2022-08-30T02:23:47;20.20;99.90
48836;DHT22;62581;47.342;7.908;2022-08-30T02:26:14;20.20;99.90
48836;DHT22;62581;47.342;7.908;2022-08-30T02:28:41;20.20;99.90
48836;DHT22;62581;47.342;7.908;2022-08-30T02:31:07;20.20;99.90
48836;DHT22;62581;47.342;7.908;2022-08-30T02:33:36;20.20;99.90
48836;DHT22;62581;47.342;7.908;2022-08-30T02:36:03;20.20;99.90
48836;DHT22;62581;47.342;7.908;2022-08-30T02:38:30;20.20;99.90
48836;DHT22;62581;47.342;7.908;2022-08-30T02:40:57;20.10;99.90
48836;DHT22;62581;47.342;7.908;2022-08-30T02:43:24;20.10;99.90
48836;DHT22;62581;47.342;7.908;2022-08-30T02:45:51;20.10;99.90
48836;DHT22;62581;47.342;7.908;2022-08-30T02:48:18;20.10;99.90
48836;DHT22;62581;47.342;7.908;2022-08-30T02:50:48;20.10;99.90
48836;DHT22;62581;47.342;7.908;2022-08-30T02:53:16;20.00;99.90
48836;DHT22;62581;47.342;7.908;2022-08-30T02:55:42;20.00;99.90
48836;DHT22;62581;47.342;7.908;2022-08-30T02:58:09;20.00;99.90
48836;DHT22;62581;47.342;7.908;2022-08-30T03:00:37;19.90;99.90
48836;DHT22;62581;47.342;7.908;2022-08-30T03:03:04;19.90;99.90
48836;DHT22;62581;47.342;7.908;2022-08-30T03:05:31;19.90;99.90
48836;DHT22;62581;47.342;7.908;2022-08-30T03:08:00;19.90;99.90
48836;DHT22;62581;47.342;7.908;2022-08-30T03:10:27;19.90;99.90
48836;DHT22;62581;47.342;7.908;2022-08-30T03:12:54;19.80;99.90
48836;DHT22;62581;47.342;7.908;2022-08-30T03:15:21;19.80;99.90
48836;DHT22;62581;47.342;7.908;2022-08-30T03:17:49;19.80;99.90
48836;DHT22;62581;47.342;7.908;2022-08-30T03:20:16;19.70;99.90
48836;DHT22;62581;47.342;7.908;2022-08-30T03:22:43;19.70;99.90
48836;DHT22;62581;47.342;7.908;2022-08-30T03:25:11;19.70;99.90
48836;DHT22;62581;47.342;7.908;2022-08-30T03:27:38;19.60;99.90
48836;DHT22;62581;47.342;7.908;2022-08-30T03:30:06;19.60;99.90
48836;DHT22;62581;47.342;7.908;2022-08-30T03:32:33;19.60;99.90
48836;DHT22;62581;47.342;7.908;2022-08-30T03:35:00;19.60;99.90
48836;DHT22;62581;47.342;7.908;2022-08-30T03:37:27;19.60;99.90
48836;DHT22;62581;47.342;7.908;2022-08-30T03:39:53;19.60;99.90
48836;DHT22;62581;47.342;7.908;2022-08-30T03:42:22;19.60;99.90
48836;DHT22;62581;47.342;7.908;2022-08-30T03:44:48;19.60;99.90
48836;DHT22;62581;47.342;7.908;2022-08-30T03:47:16;19.50;99.90
48836;DHT22;62581;47.342;7.908;2022-08-30T03:49:42;19.50;99.90
48836;DHT22;62581;47.342;7.908;2022-08-30T03:52:09;19.50;99.90
48836;DHT22;62581;47.342;7.908;2022-08-30T03:54:36;19.50;99.90
48836;DHT22;62581;47.342;7.908;2022-08-30T03:57:04;19.40;99.90
48836;DHT22;62581;47.342;7.908;2022-08-30T03:59:33;19.50;99.90
48836;DHT22;62581;47.342;7.908;2022-08-30T04:01:59;19.40;99.90
48836;DHT22;62581;47.342;7.908;2022-08-30T04:04:27;19.40;99.90
48836;DHT22;62581;47.342;7.908;2022-08-30T04:06:54;19.40;99.90
48836;DHT22;62581;47.342;7.908;2022-08-30T04:09:20;19.40;99.90
48836;DHT22;62581;47.342;7.908;2022-08-30T04:11:47;19.30;99.90
48836;DHT22;62581;47.342;7.908;2022-08-30T04:14:14;19.30;99.90
48836;DHT22;62581;47.342;7.908;2022-08-30T04:16:42;19.30;99.90
48836;DHT22;62581;47.342;7.908;2022-08-30T04:19:09;19.30;99.90
48836;DHT22;62581;47.342;7.908;2022-08-30T04:21:36;19.30;99.90
48836;DHT22;62581;47.342;7.908;2022-08-30T04:24:03;19.20;99.90
48836;DHT22;62581;47.342;7.908;2022-08-30T04:26:30;19.20;99.90
48836;DHT22;62581;47.342;7.908;2022-08-30T04:28:56;19.20;99.90
48836;DHT22;62581;47.342;7.908;2022-08-30T04:31:23;19.20;99.90
48836;DHT22;62581;47.342;7.908;2022-08-30T04:33:53;19.20;99.90
48836;DHT22;62581;47.342;7.908;2022-08-30T04:36:19;19.20;99.90
48836;DHT22;62581;47.342;7.908;2022-08-30T04:38:46;19.20;99.90
48836;DHT22;62581;47.342;7.908;2022-08-30T04:41:14;19.10;99.90
48836;DHT22;62581;47.342;7.908;2022-08-30T04:43:41;19.00;99.90
48836;DHT22;62581;47.342;7.908;2022-08-30T04:46:08;19.10;99.90
48836;DHT22;62581;47.342;7.908;2022-08-30T04:48:35;19.00;99.90
48836;DHT22;62581;47.342;7.908;2022-08-30T04:51:05;19.00;99.90
48836;DHT22;62581;47.342;7.908;2022-08-30T04:53:32;19.00;99.90
48836;DHT22;62581;47.342;7.908;2022-08-30T04:55:58;19.00;99.90
48836;DHT22;62581;47.342;7.908;2022-08-30T04:58:25;19.00;99.90
48836;DHT22;62581;47.342;7.908;2022-08-30T05:00:52;19.10;99.90
48836;DHT22;62581;47.342;7.908;2022-08-30T05:03:19;19.10;99.90
48836;DHT22;62581;47.342;7.908;2022-08-30T05:05:46;19.10;99.90
48836;DHT22;62581;47.342;7.908;2022-08-30T05:08:15;19.10;99.90
48836;DHT22;62581;47.342;7.908;2022-08-30T05:10:42;19.10;99.90
48836;DHT22;62581;47.342;7.908;2022-08-30T05:13:09;19.10;99.90
48836;DHT22;62581;47.342;7.908;2022-08-30T05:15:37;19.10;99.90
48836;DHT22;62581;47.342;7.908;2022-08-30T05:18:04;19.20;99.90
48836;DHT22;62581;47.342;7.908;2022-08-30T05:20:32;19.20;99.90
48836;DHT22;62581;47.342;7.908;2022-08-30T05:22:59;19.20;99.90
48836;DHT22;62581;47.342;7.908;2022-08-30T05:25:28;19.20;99.90
48836;DHT22;62581;47.342;7.908;2022-08-30T05:27:55;19.20;99.90
48836;DHT22;62581;47.342;7.908;2022-08-30T05:30:23;19.20;99.90
48836;DHT22;62581;47.342;7.908;2022-08-30T05:32:50;19.20;99.90
48836;DHT22;62581;47.342;7.908;2022-08-30T05:35:17;19.30;99.90
48836;DHT22;62581;47.342;7.908;2022-08-30T05:37:44;19.30;99.90
48836;DHT22;62581;47.342;7.908;2022-08-30T05:40:11;19.40;99.90
48836;DHT22;62581;47.342;7.908;2022-08-30T05:42:43;19.40;99.90
48836;DHT22;62581;47.342;7.908;2022-08-30T05:45:10;19.40;99.90
48836;DHT22;62581;47.342;7.908;2022-08-30T05:47:37;19.50;99.90
48836;DHT22;62581;47.342;7.908;2022-08-30T05:50:05;19.50;99.90
48836;DHT22;62581;47.342;7.908;2022-08-30T05:52:33;19.50;99.90
48836;DHT22;62581;47.342;7.908;2022-08-30T05:55:00;19.60;99.90
48836;DHT22;62581;47.342;7.908;2022-08-30T05:57:30;19.60;99.90
48836;DHT22;62581;47.342;7.908;2022-08-30T05:59:58;19.70;99.90
48836;DHT22;62581;47.342;7.908;2022-08-30T06:02:25;19.70;99.90
48836;DHT22;62581;47.342;7.908;2022-08-30T06:04:52;19.80;99.90
48836;DHT22;62581;47.342;7.908;2022-08-30T06:07:19;19.80;99.90
48836;DHT22;62581;47.342;7.908;2022-08-30T06:09:46;19.80;99.90
48836;DHT22;62581;47.342;7.908;2022-08-30T06:12:12;19.80;99.90
48836;DHT22;62581;47.342;7.908;2022-08-30T06:14:39;19.90;99.90
48836;DHT22;62581;47.342;7.908;2022-08-30T06:17:07;19.90;99.90
48836;DHT22;62581;47.342;7.908;2022-08-30T06:19:35;19.90;99.90
48836;DHT22;62581;47.342;7.908;2022-08-30T06:22:01;19.90;99.90
48836;DHT22;62581;47.342;7.908;2022-08-30T06:24:28;19.90;99.90
48836;DHT22;62581;47.342;7.908;2022-08-30T06:26:55;19.90;99.90
48836;DHT22;62581;47.342;7.908;2022-08-30T06:29:21;20.00;99.90
48836;DHT22;62581;47.342;7.908;2022-08-30T06:31:48;20.00;99.90
48836;DHT22;62581;47.342;7.908;2022-08-30T06:34:17;20.10;99.90
48836;DHT22;62581;47.342;7.908;2022-08-30T06:36:44;20.10;99.90
48836;DHT22;62581;47.342;7.908;2022-08-30T06:39:11;20.10;99.90
48836;DHT22;62581;47.342;7.908;2022-08-30T06:41:38;20.20;99.90
48836;DHT22;62581;47.342;7.908;2022-08-30T06:44:05;20.30;99.90
48836;DHT22;62581;47.342;7.908;2022-08-30T06:46:33;20.40;99.90
48836;DHT22;62581;47.342;7.908;2022-08-30T06:49:00;20.40;99.90
48836;DHT22;62581;47.342;7.908;2022-08-30T06:51:30;20.50;99.90
48836;DHT22;62581;47.342;7.908;2022-08-30T06:53:57;20.60;99.90
48836;DHT22;62581;47.342;7.908;2022-08-30T06:56:24;20.70;99.90
48836;DHT22;62581;47.342;7.908;2022-08-30T06:58:51;20.80;99.90
48836;DHT22;62581;47.342;7.908;2022-08-30T07:01:19;21.00;99.90
48836;DHT22;62581;47.342;7.908;2022-08-30T07:03:46;21.10;99.90
48836;DHT22;62581;47.342;7.908;2022-08-30T07:06:13;21.20;99.90
48836;DHT22;62581;47.342;7.908;2022-08-30T07:08:42;21.40;99.90
48836;DHT22;62581;47.342;7.908;2022-08-30T07:11:09;21.50;99.90
48836;DHT22;62581;47.342;7.908;2022-08-30T07:13:36;21.60;99.90
48836;DHT22;62581;47.342;7.908;2022-08-30T07:16:07;21.80;99.90
48836;DHT22;62581;47.342;7.908;2022-08-30T07:18:34;21.90;99.90
48836;DHT22;62581;47.342;7.908;2022-08-30T07:21:15;22.00;99.90
48836;DHT22;62581;47.342;7.908;2022-08-30T07:23:44;22.20;99.90
48836;DHT22;62581;47.342;7.908;2022-08-30T07:26:13;22.40;99.90
48836;DHT22;62581;47.342;7.908;2022-08-30T07:28:41;22.60;99.90
48836;DHT22;62581;47.342;7.908;2022-08-30T07:31:09;22.70;99.90
48836;DHT22;62581;47.342;7.908;2022-08-30T07:33:36;22.90;99.90
48836;DHT22;62581;47.342;7.908;2022-08-30T07:36:04;23.10;99.90
48836;DHT22;62581;47.342;7.908;2022-08-30T07:38:31;23.20;99.90
48836;DHT22;62581;47.342;7.908;2022-08-30T07:41:00;23.30;99.90
48836;DHT22;62581;47.342;7.908;2022-08-30T07:43:26;23.40;99.90
48836;DHT22;62581;47.342;7.908;2022-08-30T07:45:53;23.60;99.90
48836;DHT22;62581;47.342;7.908;2022-08-30T07:48:22;23.70;99.90
48836;DHT22;62581;47.342;7.908;2022-08-30T07:50:49;23.90;99.90
48836;DHT22;62581;47.342;7.908;2022-08-30T07:53:15;24.00;99.90
48836;DHT22;62581;47.342;7.908;2022-08-30T07:55:42;24.10;99.90
48836;DHT22;62581;47.342;7.908;2022-08-30T07:58:10;24.20;99.90
48836;DHT22;62581;47.342;7.908;2022-08-30T08:00:37;24.20;99.90
48836;DHT22;62581;47.342;7.908;2022-08-30T08:03:04;24.30;99.90
48836;DHT22;62581;47.342;7.908;2022-08-30T08:05:34;24.40;99.90
48836;DHT22;62581;47.342;7.908;2022-08-30T08:08:01;24.40;99.90
48836;DHT22;62581;47.342;7.908;2022-08-30T08:10:28;24.40;99.90
48836;DHT22;62581;47.342;7.908;2022-08-30T08:12:55;24.50;99.90
48836;DHT22;62581;47.342;7.908;2022-08-30T08:15:23;24.50;99.90
48836;DHT22;62581;47.342;7.908;2022-08-30T08:17:50;24.60;99.90
48836;DHT22;62581;47.342;7.908;2022-08-30T08:20:17;24.60;99.90
48836;DHT22;62581;47.342;7.908;2022-08-30T08:22:44;24.70;99.90
48836;DHT22;62581;47.342;7.908;2022-08-30T08:25:11;24.80;99.90
48836;DHT22;62581;47.342;7.908;2022-08-30T08:27:39;24.90;99.90
48836;DHT22;62581;47.342;7.908;2022-08-30T08:30:06;24.90;99.90
48836;DHT22;62581;47.342;7.908;2022-08-30T08:32:34;25.10;99.90
48836;DHT22;62581;47.342;7.908;2022-08-30T08:35:01;25.20;99.90
48836;DHT22;62581;47.342;7.908;2022-08-30T08:37:28;25.40;99.90
48836;DHT22;62581;47.342;7.908;2022-08-30T08:39:55;25.50;99.90
48836;DHT22;62581;47.342;7.908;2022-08-30T08:42:23;25.70;99.90
48836;DHT22;62581;47.342;7.908;2022-08-30T08:44:56;25.70;99.90
48836;DHT22;62581;47.342;7.908;2022-08-30T08:47:26;25.70;99.90
48836;DHT22;62581;47.342;7.908;2022-08-30T08:49:57;25.60;99.90
48836;DHT22;62581;47.342;7.908;2022-08-30T08:52:28;25.50;99.90
48836;DHT22;62581;47.342;7.908;2022-08-30T08:55:13;25.40;99.90
48836;DHT22;62581;47.342;7.908;2022-08-30T08:57:40;25.40;99.90
48836;DHT22;62581;47.342;7.908;2022-08-30T09:00:08;25.50;99.90
48836;DHT22;62581;47.342;7.908;2022-08-30T09:02:37;25.50;99.90
48836;DHT22;62581;47.342;7.908;2022-08-30T09:05:06;25.60;99.90
48836;DHT22;62581;47.342;7.908;2022-08-30T09:07:34;25.60;99.90
48836;DHT22;62581;47.342;7.908;2022-08-30T09:10:03;25.50;99.90
48836;DHT22;62581;47.342;7.908;2022-08-30T09:12:30;25.40;99.90
48836;DHT22;62581;47.342;7.908;2022-08-30T09:14:58;25.20;99.90
48836;DHT22;62581;47.342;7.908;2022-08-30T09:17:27;25.20;99.90
48836;DHT22;62581;47.342;7.908;2022-08-30T09:19:56;25.20;99.90
48836;DHT22;62581;47.342;7.908;2022-08-30T09:22:26;25.30;99.90
48836;DHT22;62581;47.342;7.908;2022-08-30T09:24:59;25.50;99.90
48836;DHT22;62581;47.342;7.908;2022-08-30T09:27:27;25.50;99.90
48836;DHT22;62581;47.342;7.908;2022-08-30T09:29:56;25.70;99.90
48836;DHT22;62581;47.342;7.908;2022-08-30T09:32:24;25.90;99.90
48836;DHT22;62581;47.342;7.908;2022-08-30T09:34:51;26.20;99.90
48836;DHT22;62581;47.342;7.908;2022-08-30T09:37:27;26.40;99.90
48836;DHT22;62581;47.342;7.908;2022-08-30T09:39:54;26.60;99.90
48836;DHT22;62581;47.342;7.908;2022-08-30T09:42:21;26.90;99.90
48836;DHT22;62581;47.342;7.908;2022-08-30T09:44:49;27.10;99.90
48836;DHT22;62581;47.342;7.908;2022-08-30T09:47:17;27.20;99.90
48836;DHT22;62581;47.342;7.908;2022-08-30T09:49:44;27.30;99.90
48836;DHT22;62581;47.342;7.908;2022-08-30T09:52:15;27.50;99.90
48836;DHT22;62581;47.342;7.908;2022-08-30T09:54:46;27.60;99.90
48836;DHT22;62581;47.342;7.908;2022-08-30T09:57:16;27.60;99.90
48836;DHT22;62581;47.342;7.908;2022-08-30T09:59:47;27.50;99.90
48836;DHT22;62581;47.342;7.908;2022-08-30T10:02:20;27.60;99.90
48836;DHT22;62581;47.342;7.908;2022-08-30T10:04:52;27.60;99.90
48836;DHT22;62581;47.342;7.908;2022-08-30T10:07:24;27.60;99.90
48836;DHT22;62581;47.342;7.908;2022-08-30T10:09:57;27.50;99.90
48836;DHT22;62581;47.342;7.908;2022-08-30T10:12:28;27.40;99.90
48836;DHT22;62581;47.342;7.908;2022-08-30T10:14:59;27.30;99.90
48836;DHT22;62581;47.342;7.908;2022-08-30T10:17:33;27.30;99.90
48836;DHT22;62581;47.342;7.908;2022-08-30T10:20:09;27.10;99.90
48836;DHT22;62581;47.342;7.908;2022-08-30T10:22:38;27.00;99.90
48836;DHT22;62581;47.342;7.908;2022-08-30T10:25:08;27.00;99.90
48836;DHT22;62581;47.342;7.908;2022-08-30T10:27:38;26.90;99.90
48836;DHT22;62581;47.342;7.908;2022-08-30T10:30:06;26.90;99.90
48836;DHT22;62581;47.342;7.908;2022-08-30T10:32:35;26.90;99.90
48836;DHT22;62581;47.342;7.908;2022-08-30T10:35:05;26.90;99.90
48836;DHT22;62581;47.342;7.908;2022-08-30T10:37:35;26.90;99.90
48836;DHT22;62581;47.342;7.908;2022-08-30T10:40:04;27.00;99.90
48836;DHT22;62581;47.342;7.908;2022-08-30T10:42:50;27.20;99.90
48836;DHT22;62581;47.342;7.908;2022-08-30T10:45:18;27.40;99.90
48836;DHT22;62581;47.342;7.908;2022-08-30T10:47:47;27.60;99.90
48836;DHT22;62581;47.342;7.908;2022-08-30T10:50:17;27.80;99.90
48836;DHT22;62581;47.342;7.908;2022-08-30T10:52:46;28.10;99.90
48836;DHT22;62581;47.342;7.908;2022-08-30T10:55:17;28.40;99.90
48836;DHT22;62581;47.342;7.908;2022-08-30T10:57:46;28.50;99.90
48836;DHT22;62581;47.342;7.908;2022-08-30T11:00:21;28.60;99.90
48836;DHT22;62581;47.342;7.908;2022-08-30T11:05:54;28.90;99.90
48836;DHT22;62581;47.342;7.908;2022-08-30T11:08:27;29.00;99.90
48836;DHT22;62581;47.342;7.908;2022-08-30T11:10:57;29.00;99.90
48836;DHT22;62581;47.342;7.908;2022-08-30T11:13:30;29.00;99.90
48836;DHT22;62581;47.342;7.908;2022-08-30T11:16:00;29.10;99.90
48836;DHT22;62581;47.342;7.908;2022-08-30T11:18:27;29.30;99.90
48836;DHT22;62581;47.342;7.908;2022-08-30T11:21:14;29.40;99.80
48836;DHT22;62581;47.342;7.908;2022-08-30T11:23:42;29.50;99.20
48836;DHT22;62581;47.342;7.908;2022-08-30T11:29:05;29.70;98.70
48836;DHT22;62581;47.342;7.908;2022-08-30T11:31:35;29.70;98.40
48836;DHT22;62581;47.342;7.908;2022-08-30T11:34:02;29.70;98.50
48836;DHT22;62581;47.342;7.908;2022-08-30T11:42:08;30.00;96.60
48836;DHT22;62581;47.342;7.908;2022-08-30T11:44:36;30.00;97.10
48836;DHT22;62581;47.342;7.908;2022-08-30T11:49:57;30.30;96.70
48836;DHT22;62581;47.342;7.908;2022-08-30T11:52:46;30.40;95.90
48836;DHT22;62581;47.342;7.908;2022-08-30T11:55:25;30.40;96.10
48836;DHT22;62581;47.342;7.908;2022-08-30T11:57:55;30.50;95.80
48836;DHT22;62581;47.342;7.908;2022-08-30T12:00:25;30.70;95.50
48836;DHT22;62581;47.342;7.908;2022-08-30T12:02:55;30.80;95.60
48836;DHT22;62581;47.342;7.908;2022-08-30T12:08:09;31.20;94.60
48836;DHT22;62581;47.342;7.908;2022-08-30T12:10:37;31.30;94.10
48836;DHT22;62581;47.342;7.908;2022-08-30T12:13:04;31.50;93.80
48836;DHT22;62581;47.342;7.908;2022-08-30T12:18:15;31.60;92.50
48836;DHT22;62581;47.342;7.908;2022-08-30T12:21:04;31.70;92.40
48836;DHT22;62581;47.342;7.908;2022-08-30T12:23:38;32.10;91.90
48836;DHT22;62581;47.342;7.908;2022-08-30T12:26:09;32.50;90.60
48836;DHT22;62581;47.342;7.908;2022-08-30T12:28:36;32.80;90.00
48836;DHT22;62581;47.342;7.908;2022-08-30T12:31:06;32.90;89.40
48836;DHT22;62581;47.342;7.908;2022-08-30T12:33:37;32.80;89.40
48836;DHT22;62581;47.342;7.908;2022-08-30T12:36:05;33.00;88.10
48836;DHT22;62581;47.342;7.908;2022-08-30T12:38:33;33.20;88.40
48836;DHT22;62581;47.342;7.908;2022-08-30T12:41:00;33.70;87.60
48836;DHT22;62581;47.342;7.908;2022-08-30T12:43:29;34.10;84.90
48836;DHT22;62581;47.342;7.908;2022-08-30T12:45:56;34.50;84.40
48836;DHT22;62581;47.342;7.908;2022-08-30T12:48:25;35.10;81.90
48836;DHT22;62581;47.342;7.908;2022-08-30T12:50:56;35.60;79.50
48836;DHT22;62581;47.342;7.908;2022-08-30T12:53:24;36.20;78.80
48836;DHT22;62581;47.342;7.908;2022-08-30T12:55:54;36.90;75.60
48836;DHT22;62581;47.342;7.908;2022-08-30T12:58:33;37.40;73.00
48836;DHT22;62581;47.342;7.908;2022-08-30T13:01:13;37.70;71.20
48836;DHT22;62581;47.342;7.908;2022-08-30T13:03:42;37.70;71.10
48836;DHT22;62581;47.342;7.908;2022-08-30T13:09:21;37.10;71.00
48836;DHT22;62581;47.342;7.908;2022-08-30T13:11:49;36.70;71.50
48836;DHT22;62581;47.342;7.908;2022-08-30T13:14:33;36.40;71.90
48836;DHT22;62581;47.342;7.908;2022-08-30T13:17:04;36.20;72.00
48836;DHT22;62581;47.342;7.908;2022-08-30T13:19:31;36.00;71.70
48836;DHT22;62581;47.342;7.908;2022-08-30T13:21:58;35.80;72.20
48836;DHT22;62581;47.342;7.908;2022-08-30T13:24:27;36.20;72.00
48836;DHT22;62581;47.342;7.908;2022-08-30T13:26:54;36.80;70.00
48836;DHT22;62581;47.342;7.908;2022-08-30T13:29:23;37.90;68.00
48836;DHT22;62581;47.342;7.908;2022-08-30T13:31:50;39.30;64.50
48836;DHT22;62581;47.342;7.908;2022-08-30T13:34:17;40.50;62.20
48836;DHT22;62581;47.342;7.908;2022-08-30T13:36:48;41.80;59.40
48836;DHT22;62581;47.342;7.908;2022-08-30T13:39:15;43.00;57.30
48836;DHT22;62581;47.342;7.908;2022-08-30T13:41:43;43.30;54.40
48836;DHT22;62581;47.342;7.908;2022-08-30T13:44:10;43.30;53.80
48836;DHT22;62581;47.342;7.908;2022-08-30T13:46:37;43.70;54.00
48836;DHT22;62581;47.342;7.908;2022-08-30T13:49:06;44.40;53.40
48836;DHT22;62581;47.342;7.908;2022-08-30T13:51:33;45.10;52.50
48836;DHT22;62581;47.342;7.908;2022-08-30T13:54:00;45.30;51.80
48836;DHT22;62581;47.342;7.908;2022-08-30T13:56:27;45.50;51.00
48836;DHT22;62581;47.342;7.908;2022-08-30T13:58:57;45.70;50.60
48836;DHT22;62581;47.342;7.908;2022-08-30T14:01:24;45.80;50.30
48836;DHT22;62581;47.342;7.908;2022-08-30T14:03:51;45.80;50.00
48836;DHT22;62581;47.342;7.908;2022-08-30T14:06:18;45.50;49.60
48836;DHT22;62581;47.342;7.908;2022-08-30T14:08:45;44.80;50.60
48836;DHT22;62581;47.342;7.908;2022-08-30T14:11:12;44.40;51.30
48836;DHT22;62581;47.342;7.908;2022-08-30T14:13:40;44.40;51.30
48836;DHT22;62581;47.342;7.908;2022-08-30T14:16:10;43.70;51.50
48836;DHT22;62581;47.342;7.908;2022-08-30T14:18:36;42.00;52.80
48836;DHT22;62581;47.342;7.908;2022-08-30T14:21:03;40.20;55.30
48836;DHT22;62581;47.342;7.908;2022-08-30T14:23:30;38.50;57.50
48836;DHT22;62581;47.342;7.908;2022-08-30T14:25:57;37.10;58.70
48836;DHT22;62581;47.342;7.908;2022-08-30T14:28:24;36.00;60.70
48836;DHT22;62581;47.342;7.908;2022-08-30T14:30:54;35.20;62.60
48836;DHT22;62581;47.342;7.908;2022-08-30T14:33:22;34.80;64.10
48836;DHT22;62581;47.342;7.908;2022-08-30T14:35:49;34.60;64.30
48836;DHT22;62581;47.342;7.908;2022-08-30T14:38:15;34.50;63.70
48836;DHT22;62581;47.342;7.908;2022-08-30T14:40:42;34.40;65.40
48836;DHT22;62581;47.342;7.908;2022-08-30T14:43:09;34.80;65.50
48836;DHT22;62581;47.342;7.908;2022-08-30T14:45:36;35.40;63.80
48836;DHT22;62581;47.342;7.908;2022-08-30T14:48:03;36.50;62.20
48836;DHT22;62581;47.342;7.908;2022-08-30T14:50:35;37.80;60.00
48836;DHT22;62581;47.342;7.908;2022-08-30T14:53:02;39.50;57.80
48836;DHT22;62581;47.342;7.908;2022-08-30T14:55:29;41.10;55.40
48836;DHT22;62581;47.342;7.908;2022-08-30T14:57:56;42.10;53.50
48836;DHT22;62581;47.342;7.908;2022-08-30T15:00:23;43.10;52.30
48836;DHT22;62581;47.342;7.908;2022-08-30T15:02:50;44.50;51.10
48836;DHT22;62581;47.342;7.908;2022-08-30T15:05:17;45.90;49.40
48836;DHT22;62581;47.342;7.908;2022-08-30T15:07:47;47.20;47.90
48836;DHT22;62581;47.342;7.908;2022-08-30T15:10:15;48.50;46.60
48836;DHT22;62581;47.342;7.908;2022-08-30T15:12:45;49.50;45.10
48836;DHT22;62581;47.342;7.908;2022-08-30T15:15:12;49.90;43.70
48836;DHT22;62581;47.342;7.908;2022-08-30T15:17:39;49.60;44.10
48836;DHT22;62581;47.342;7.908;2022-08-30T15:20:08;49.30;43.50
48836;DHT22;62581;47.342;7.908;2022-08-30T15:22:35;47.40;45.00
48836;DHT22;62581;47.342;7.908;2022-08-30T15:25:03;46.40;46.20
48836;DHT22;62581;47.342;7.908;2022-08-30T15:27:30;46.10;46.80
48836;DHT22;62581;47.342;7.908;2022-08-30T15:29:57;45.70;46.70
48836;DHT22;62581;47.342;7.908;2022-08-30T15:32:24;45.20;47.30
48836;DHT22;62581;47.342;7.908;2022-08-30T15:34:51;44.70;48.10
48836;DHT22;62581;47.342;7.908;2022-08-30T15:37:17;44.90;48.20
48836;DHT22;62581;47.342;7.908;2022-08-30T15:39:46;45.40;47.80
48836;DHT22;62581;47.342;7.908;2022-08-30T15:42:15;45.80;47.10
48836;DHT22;62581;47.342;7.908;2022-08-30T15:44:43;45.80;47.10
48836;DHT22;62581;47.342;7.908;2022-08-30T15:47:10;45.30;47.30
48836;DHT22;62581;47.342;7.908;2022-08-30T15:49:37;45.00;47.40
48836;DHT22;62581;47.342;7.908;2022-08-30T15:52:04;44.60;47.80
48836;DHT22;62581;47.342;7.908;2022-08-30T15:54:31;43.80;48.00
48836;DHT22;62581;47.342;7.908;2022-08-30T15:56:58;42.80;49.30
48836;DHT22;62581;47.342;7.908;2022-08-30T15:59:26;41.40;50.90